createdAt,value
2022-08-18T00:02:28.876Z,10.98
2022-08-18T00:05:36.092Z,10.68
2022-08-18T00:08:46.926Z,9.73
2022-08-18T00:11:52.069Z,11.10
2022-08-18T00:14:57.512Z,10.07
2022-08-18T00:18:02.601Z,9.65
2022-08-18T00:21:08.847Z,9.43
2022-08-18T00:24:16.465Z,10.48
2022-08-18T00:27:24.007Z,9.70
2022-08-18T00:30:34.519Z,9.02
2022-08-18T00:33:39.806Z,9.15
2022-08-18T00:36:44.851Z,8.60
2022-08-18T00:39:53.212Z,8.93
2022-08-18T00:42:59.663Z,9.82
2022-08-18T00:46:04.882Z,9.05
2022-08-18T00:49:10.121Z,10.13
2022-08-18T00:52:16.766Z,9.70
2022-08-18T00:55:25.236Z,9.25
2022-08-18T00:58:35.807Z,9.32
2022-08-18T01:01:42.381Z,10.48
2022-08-18T01:04:51.734Z,9.63
2022-08-18T01:07:57.132Z,10.05
2022-08-18T01:11:05.810Z,9.10
2022-08-18T01:14:11.773Z,9.85
2022-08-18T01:17:29.415Z,9.65
2022-08-18T01:20:50.205Z,8.98
2022-08-18T01:23:58.304Z,9.88
2022-08-18T01:27:00.942Z,9.00
2022-08-18T01:30:10.573Z,9.15
2022-08-18T01:33:15.665Z,9.13
2022-08-18T01:36:21.951Z,9.27
2022-08-18T01:41:25.812Z,8.95
2022-08-18T01:42:56.705Z,9.10
2022-08-18T01:46:04.398Z,9.87
2022-08-18T01:49:09.680Z,9.00
2022-08-18T01:52:19.750Z,8.45
2022-08-18T01:55:28.911Z,9.30
2022-08-18T01:58:33.895Z,9.30
2022-08-18T02:01:48.108Z,8.40
2022-08-18T02:04:55.100Z,8.50
2022-08-18T02:08:00.629Z,8.73
2022-08-18T02:11:09.254Z,8.23
2022-08-18T02:14:14.516Z,9.73
2022-08-18T02:17:20.441Z,9.13
2022-08-18T02:20:25.520Z,8.80
2022-08-18T02:23:30.953Z,8.68
2022-08-18T02:26:38.668Z,9.38
2022-08-18T02:29:44.255Z,9.07
2022-08-18T02:32:49.475Z,9.15
2022-08-18T02:35:56.835Z,10.02
2022-08-18T02:39:01.797Z,9.52
2022-08-18T02:42:10.191Z,10.05
2022-08-18T02:45:16.107Z,9.63
2022-08-18T02:48:22.125Z,9.20
2022-08-18T02:51:27.311Z,9.52
2022-08-18T02:54:32.467Z,9.25
2022-08-18T02:57:44.517Z,9.82
2022-08-18T03:00:50.162Z,9.95
2022-08-18T03:03:55.200Z,9.60
2022-08-18T03:07:02.567Z,9.75
2022-08-18T03:10:31.424Z,10.68
2022-08-18T03:13:36.235Z,9.13
2022-08-18T03:16:52.864Z,10.60
2022-08-18T03:20:01.022Z,10.77
2022-08-18T03:23:10.059Z,10.90
2022-08-18T03:26:16.510Z,11.07
2022-08-18T03:29:27.894Z,11.68
2022-08-18T03:32:37.016Z,11.35
2022-08-18T03:35:42.099Z,12.60
2022-08-18T03:38:50.935Z,12.38
2022-08-18T03:42:01.631Z,13.02
2022-08-18T03:45:13.422Z,14.05
2022-08-18T03:48:23.799Z,14.02
2022-08-18T03:51:30.394Z,13.25
2022-08-18T03:54:36.674Z,13.30
2022-08-18T03:57:41.811Z,16.23
2022-08-18T04:00:50.230Z,16.52
2022-08-18T04:07:04.896Z,18.10
2022-08-18T04:10:14.052Z,17.05
2022-08-18T04:13:24.944Z,17.98
2022-08-18T04:16:33.096Z,17.48
2022-08-18T04:19:38.284Z,20.60
2022-08-18T04:22:45.733Z,18.95
2022-08-18T04:25:58.890Z,18.73
2022-08-18T04:29:04.417Z,19.20
2022-08-18T04:32:12.347Z,18.67
2022-08-18T04:35:17.655Z,20.08
2022-08-18T04:38:23.432Z,18.85
2022-08-18T04:41:29.678Z,20.70
2022-08-18T04:44:34.684Z,22.33
2022-08-18T04:47:44.847Z,24.98
2022-08-18T04:50:50.392Z,30.63
2022-08-18T04:53:52.969Z,32.88
2022-08-18T04:56:58.210Z,36.95
2022-08-18T05:00:03.533Z,34.17
2022-08-18T05:03:11.338Z,35.00
2022-08-18T05:06:16.460Z,43.60
2022-08-18T05:09:23.075Z,45.65
2022-08-18T05:12:29.345Z,46.75
2022-08-18T05:15:47.153Z,60.25
2022-08-18T05:19:04.863Z,60.42
2022-08-18T05:22:18.345Z,69.20
2022-08-18T05:25:23.751Z,74.82
2022-08-18T05:28:29.498Z,71.65
2022-08-18T05:31:34.724Z,74.10
2022-08-18T05:34:42.557Z,83.97
2022-08-18T05:37:53.899Z,88.78
2022-08-18T05:41:13.732Z,97.95
2022-08-18T05:44:21.541Z,102.45
2022-08-18T05:47:27.990Z,120.30
2022-08-18T05:50:38.187Z,120.13
2022-08-18T05:53:56.433Z,125.07
2022-08-18T05:57:03.290Z,117.75
2022-08-18T06:00:10.801Z,115.68
2022-08-18T06:03:21.646Z,112.35
2022-08-18T06:06:30.541Z,108.82
2022-08-18T06:09:37.941Z,110.50
2022-08-18T06:12:47.148Z,110.77
2022-08-18T06:15:55.829Z,112.03
2022-08-18T06:19:04.176Z,110.82
2022-08-18T06:25:18.734Z,109.95
2022-08-18T06:28:24.153Z,111.18
2022-08-18T06:31:34.760Z,109.70
2022-08-18T06:34:45.155Z,109.63
2022-08-18T06:38:09.368Z,109.00
2022-08-18T06:41:41.698Z,108.53
2022-08-18T06:44:49.280Z,108.53
2022-08-18T06:47:59.875Z,106.05
2022-08-18T06:51:07.283Z,108.00
2022-08-18T06:54:28.294Z,102.05
2022-08-18T06:57:38.175Z,99.68
2022-08-18T07:00:49.110Z,93.32
2022-08-18T07:03:58.633Z,86.85
2022-08-18T07:07:14.969Z,90.65
2022-08-18T07:10:37.571Z,83.53
2022-08-18T07:13:46.110Z,77.05
2022-08-18T07:16:59.999Z,68.75
2022-08-18T07:20:08.970Z,70.25
2022-08-18T07:23:23.979Z,68.28
2022-08-18T07:26:29.391Z,61.58
2022-08-18T07:29:38.277Z,61.25
2022-08-18T07:32:47.679Z,61.22
2022-08-18T07:35:54.821Z,52.13
2022-08-18T07:39:03.653Z,46.70
2022-08-18T07:42:12.056Z,44.17
2022-08-18T07:45:24.595Z,35.70
2022-08-18T07:48:40.804Z,31.00
2022-08-18T07:51:53.096Z,28.02
2022-08-18T07:55:06.619Z,26.75
2022-08-18T07:58:22.687Z,21.75
2022-08-18T08:01:36.253Z,18.85
2022-08-18T08:04:43.310Z,18.92
2022-08-18T08:07:54.388Z,17.83
2022-08-18T08:11:06.447Z,15.82
2022-08-18T08:14:24.261Z,14.80
2022-08-18T08:17:36.891Z,14.60
2022-08-18T08:20:46.384Z,13.25
2022-08-18T08:23:59.134Z,13.88
2022-08-18T08:27:07.190Z,11.48
2022-08-18T08:33:23.647Z,9.38
2022-08-18T08:36:30.935Z,8.30
2022-08-18T08:39:39.492Z,7.85
2022-08-18T08:42:46.228Z,6.95
2022-08-18T08:45:55.102Z,7.72
2022-08-18T08:49:06.392Z,6.78
2022-08-18T08:52:18.786Z,7.03
2022-08-18T08:55:26.727Z,7.07
2022-08-18T08:58:34.594Z,6.00
2022-08-18T09:01:43.272Z,5.15
2022-08-18T09:05:09.154Z,5.63
2022-08-18T09:08:30.960Z,4.28
2022-08-18T09:11:49.724Z,4.97
2022-08-18T09:15:09.066Z,4.20
2022-08-18T09:18:20.845Z,5.78
2022-08-18T09:21:40.480Z,4.43
2022-08-18T09:24:51.149Z,4.63
2022-08-18T09:28:11.417Z,4.80
2022-08-18T09:31:20.085Z,4.13
2022-08-18T09:34:45.458Z,4.30
2022-08-18T09:38:09.275Z,4.65
2022-08-18T09:41:31.389Z,4.68
2022-08-18T09:44:51.988Z,5.05
2022-08-18T09:48:01.476Z,5.07
2022-08-18T09:51:23.675Z,4.95
2022-08-18T09:54:32.224Z,4.60
2022-08-18T09:57:43.870Z,4.95
2022-08-18T10:00:49.291Z,4.85
2022-08-18T10:07:44.196Z,4.85
2022-08-18T10:11:01.051Z,4.57
2022-08-18T10:14:21.907Z,4.80
2022-08-18T10:17:38.071Z,4.53
2022-08-18T10:20:52.464Z,4.90
2022-08-18T10:24:31.726Z,4.65
2022-08-18T10:27:50.259Z,5.32
2022-08-18T10:31:16.201Z,5.20
2022-08-18T10:34:39.832Z,4.90
2022-08-18T10:37:58.440Z,5.03
2022-08-18T10:44:37.949Z,5.28
2022-08-18T10:47:45.934Z,4.82
2022-08-18T10:50:55.981Z,5.07
2022-08-18T10:54:03.120Z,4.60
2022-08-18T10:57:11.400Z,4.70
2022-08-18T11:00:22.264Z,5.15
2022-08-18T11:03:56.006Z,5.07
2022-08-18T11:07:07.955Z,4.90
2022-08-18T11:10:32.222Z,5.05
2022-08-18T11:13:43.265Z,4.53
2022-08-18T11:16:56.025Z,4.57
2022-08-18T11:20:01.976Z,5.13
2022-08-18T11:23:14.922Z,4.97
2022-08-18T11:26:20.306Z,3.97
2022-08-18T11:29:34.479Z,3.35
2022-08-18T11:36:08.592Z,3.92
2022-08-18T11:39:15.266Z,3.88
2022-08-18T11:45:54.525Z,4.00
2022-08-18T11:49:04.480Z,4.30
2022-08-18T11:52:29.618Z,4.45
2022-08-18T11:55:39.192Z,4.00
2022-08-18T11:58:50.717Z,3.97
2022-08-18T12:01:57.431Z,3.85
2022-08-18T12:08:56.779Z,3.80
2022-08-18T12:11:55.586Z,4.22
2022-08-18T12:15:14.040Z,3.90
2022-08-18T12:18:28.606Z,4.10
2022-08-18T12:21:34.653Z,4.10
2022-08-18T12:24:43.366Z,4.25
2022-08-18T12:27:48.893Z,4.20
2022-08-18T12:30:56.215Z,4.22
2022-08-18T12:34:02.324Z,3.83
2022-08-18T12:37:34.052Z,4.43
2022-08-18T12:43:40.431Z,3.73
2022-08-18T12:46:48.478Z,5.15
2022-08-18T12:52:59.029Z,4.10
2022-08-18T12:56:04.708Z,4.47
2022-08-18T12:59:13.093Z,4.40
2022-08-18T13:02:18.587Z,4.05
2022-08-18T13:05:27.479Z,3.78
2022-08-18T13:08:47.914Z,7.80
2022-08-18T13:11:55.764Z,3.58
2022-08-18T13:15:08.881Z,4.30
2022-08-18T13:18:16.410Z,3.90
2022-08-18T13:21:22.671Z,4.40
2022-08-18T13:24:27.876Z,3.90
2022-08-18T13:27:35.406Z,4.00
2022-08-18T13:30:43.691Z,3.70
2022-08-18T13:33:57.506Z,3.85
2022-08-18T13:37:06.004Z,4.10
2022-08-18T13:40:12.644Z,3.50
2022-08-18T13:43:18.688Z,3.42
2022-08-18T13:46:30.890Z,3.78
2022-08-18T13:49:36.516Z,4.05
2022-08-18T13:52:44.712Z,3.67
2022-08-18T13:55:49.793Z,3.60
2022-08-18T13:58:55.054Z,4.00
2022-08-18T14:02:03.686Z,3.45
2022-08-18T14:05:10.396Z,4.25
2022-08-18T14:08:19.081Z,4.30
2022-08-18T14:11:27.760Z,4.15
2022-08-18T14:14:38.469Z,3.83
2022-08-18T14:17:46.321Z,3.90
2022-08-18T14:21:06.233Z,4.47
2022-08-18T14:24:26.640Z,3.60
2022-08-18T14:27:35.209Z,3.30
2022-08-18T14:30:40.972Z,3.63
2022-08-18T14:34:03.897Z,3.92
2022-08-18T14:37:09.822Z,3.45
2022-08-18T14:40:17.579Z,3.58
2022-08-18T14:43:25.022Z,3.50
2022-08-18T14:46:32.794Z,3.75
2022-08-18T14:49:47.826Z,3.95
2022-08-18T14:52:53.389Z,6.15
2022-08-18T14:55:59.551Z,4.32
2022-08-18T14:59:05.569Z,3.65
2022-08-18T15:02:13.461Z,5.07
2022-08-18T15:05:24.407Z,4.03
2022-08-18T15:08:30.242Z,3.80
2022-08-18T15:11:38.141Z,3.53
2022-08-18T15:14:43.554Z,4.25
2022-08-18T15:17:50.500Z,5.47
2022-08-18T15:21:35.760Z,3.97
2022-08-18T15:24:54.501Z,4.72
2022-08-18T15:28:00.780Z,4.70
2022-08-18T15:34:31.204Z,4.20
2022-08-18T15:37:43.556Z,5.15
2022-08-18T15:40:51.618Z,4.30
2022-08-18T15:44:02.829Z,5.60
2022-08-18T15:47:09.512Z,5.88
2022-08-18T15:53:30.435Z,5.40
2022-08-18T15:56:37.132Z,6.60
2022-08-18T15:59:49.146Z,6.18
2022-08-18T16:02:57.688Z,5.78
2022-08-18T16:06:03.087Z,5.97
2022-08-18T16:09:11.000Z,7.15
2022-08-18T16:12:16.084Z,7.53
2022-08-18T16:15:23.012Z,5.40
2022-08-18T16:18:29.739Z,6.15
2022-08-18T16:21:36.413Z,5.60
2022-08-18T16:24:44.396Z,5.97
2022-08-18T16:27:55.619Z,5.35
2022-08-18T16:31:00.950Z,5.15
2022-08-18T16:34:06.255Z,4.70
2022-08-18T16:37:12.357Z,5.25
2022-08-18T16:40:20.838Z,5.68
2022-08-18T16:43:27.513Z,4.82
2022-08-18T16:46:32.489Z,5.10
2022-08-18T16:49:38.035Z,4.88
2022-08-18T16:52:43.569Z,5.10
2022-08-18T16:55:51.424Z,4.65
2022-08-18T16:59:09.393Z,5.20
2022-08-18T17:02:26.863Z,4.88
2022-08-18T17:05:34.841Z,5.47
2022-08-18T17:08:40.073Z,4.93
2022-08-18T17:11:51.390Z,5.32
2022-08-18T17:14:57.365Z,5.45
2022-08-18T17:18:03.393Z,5.60
2022-08-18T17:21:09.422Z,5.00
2022-08-18T17:24:14.883Z,5.35
2022-08-18T17:27:37.409Z,5.10
2022-08-18T17:30:46.430Z,5.20
2022-08-18T17:33:52.009Z,5.22
2022-08-18T17:36:58.949Z,5.55
2022-08-18T17:40:08.261Z,5.07
2022-08-18T17:43:18.113Z,5.30
2022-08-18T17:46:27.680Z,5.70
2022-08-18T17:49:47.205Z,7.35
2022-08-18T17:52:56.159Z,5.95
2022-08-18T17:56:03.017Z,5.68
2022-08-18T17:59:46.476Z,5.60
2022-08-18T18:02:39.779Z,5.43
2022-08-18T18:05:46.019Z,5.30
2022-08-18T18:08:52.699Z,4.97
2022-08-18T18:11:57.690Z,5.68
2022-08-18T18:15:06.349Z,5.57
2022-08-18T18:18:25.436Z,5.45
2022-08-18T18:21:58.915Z,5.45
2022-08-18T18:24:56.849Z,6.43
2022-08-18T18:28:02.003Z,5.57
2022-08-18T18:31:25.346Z,5.60
2022-08-18T18:34:35.014Z,5.40
2022-08-18T18:37:44.007Z,4.88
2022-08-18T18:40:57.456Z,5.18
2022-08-18T18:44:09.681Z,5.40
2022-08-18T18:47:26.611Z,5.00
2022-08-18T18:50:35.718Z,5.03
2022-08-18T18:53:46.674Z,4.60
2022-08-18T18:56:53.783Z,4.47
2022-08-18T19:00:02.804Z,4.30
2022-08-18T19:03:13.760Z,4.18
2022-08-18T19:06:28.924Z,4.32
2022-08-18T19:09:36.698Z,4.55
2022-08-18T19:12:46.728Z,4.43
2022-08-18T19:15:52.423Z,4.55
2022-08-18T19:19:35.447Z,4.72
2022-08-18T19:22:30.600Z,4.43
2022-08-18T19:25:38.244Z,5.18
2022-08-18T19:29:12.058Z,6.10
2022-08-18T19:32:16.843Z,5.82
2022-08-18T19:35:25.948Z,5.32
2022-08-18T19:38:45.090Z,5.80
2022-08-18T19:41:59.098Z,6.10
2022-08-18T19:45:16.784Z,6.30
2022-08-18T19:48:26.426Z,7.03
2022-08-18T19:51:35.582Z,7.30
2022-08-18T19:54:47.806Z,7.13
2022-08-18T19:57:59.332Z,7.07
2022-08-18T20:01:05.173Z,6.55
2022-08-18T20:04:22.353Z,6.68
2022-08-18T20:07:46.919Z,6.88
2022-08-18T20:11:04.534Z,7.93
2022-08-18T20:14:12.997Z,7.03
2022-08-18T20:17:19.929Z,6.53
2022-08-18T20:20:25.573Z,6.32
2022-08-18T20:23:34.629Z,7.43
2022-08-18T20:26:50.098Z,7.05
2022-08-18T20:30:04.221Z,7.13
2022-08-18T20:33:20.880Z,7.13
2022-08-18T20:36:29.693Z,7.55
2022-08-18T20:39:45.463Z,7.10
2022-08-18T20:42:56.322Z,6.82
2022-08-18T20:46:19.805Z,7.22
2022-08-18T20:49:34.337Z,7.40
2022-08-18T20:52:43.407Z,7.70
2022-08-18T20:55:53.246Z,7.03
2022-08-18T20:59:08.975Z,7.32
2022-08-18T21:02:27.669Z,7.22
2022-08-18T21:05:35.414Z,7.25
2022-08-18T21:08:42.065Z,7.03
2022-08-18T21:11:48.573Z,7.20
2022-08-18T21:15:00.203Z,7.38
2022-08-18T21:18:06.064Z,6.70
2022-08-18T21:21:27.468Z,7.05
2022-08-18T21:24:33.970Z,6.32
2022-08-18T21:27:40.637Z,6.57
2022-08-18T21:31:41.860Z,6.20
2022-08-18T21:34:33.627Z,5.72
2022-08-18T21:37:43.875Z,6.03
2022-08-18T21:40:50.325Z,6.53
2022-08-18T21:43:58.645Z,6.15
2022-08-18T21:47:10.844Z,6.57
2022-08-18T21:50:18.268Z,5.80
2022-08-18T21:53:25.558Z,6.28
2022-08-18T21:56:35.897Z,5.90
2022-08-18T22:00:01.398Z,6.13
2022-08-18T22:03:17.198Z,6.07
2022-08-18T22:06:25.560Z,6.22
2022-08-18T22:09:44.462Z,6.10
2022-08-18T22:13:07.013Z,6.40
2022-08-18T22:16:26.150Z,5.07
2022-08-18T22:19:33.876Z,5.97
2022-08-18T22:22:51.391Z,5.97
2022-08-18T22:25:56.654Z,6.15
2022-08-18T22:29:06.241Z,6.55
2022-08-18T22:32:11.436Z,6.57
2022-08-18T22:35:19.102Z,6.78
2022-08-18T22:38:24.458Z,6.88
2022-08-18T22:41:29.666Z,6.55
2022-08-18T22:44:35.405Z,6.97
2022-08-18T22:47:43.649Z,6.07
2022-08-18T22:50:53.137Z,6.20
2022-08-18T22:53:59.410Z,6.05
2022-08-18T22:57:04.614Z,5.63
2022-08-18T23:00:14.649Z,6.15
2022-08-18T23:03:20.013Z,5.38
2022-08-18T23:06:28.757Z,5.22
2022-08-18T23:09:35.036Z,5.03
2022-08-18T23:12:40.477Z,5.05
2022-08-18T23:15:48.752Z,5.45
2022-08-18T23:18:53.989Z,5.10
2022-08-18T23:22:02.073Z,5.72
2022-08-18T23:28:16.032Z,5.00
2022-08-18T23:31:21.394Z,4.93
2022-08-18T23:34:27.663Z,5.75
2022-08-18T23:37:35.572Z,5.35
2022-08-18T23:40:41.100Z,4.70
2022-08-18T23:43:48.302Z,4.78
2022-08-18T23:46:54.017Z,5.28
2022-08-18T23:49:59.375Z,5.40
2022-08-18T23:53:07.152Z,6.07
2022-08-18T23:56:12.394Z,6.38
2022-08-18T23:59:18.305Z,6.20
